createdAt,value
2019-06-08T00:01:52.422Z,0.80
2019-06-08T00:04:20.672Z,0.50
2019-06-08T00:06:47.509Z,0.60
2019-06-08T00:09:14.749Z,0.85
2019-06-08T00:11:42.274Z,0.60
2019-06-08T00:14:09.313Z,0.57
2019-06-08T00:16:49.873Z,0.90
2019-06-08T00:19:17.425Z,0.80
2019-06-08T00:21:44.291Z,0.93
2019-06-08T00:24:11.110Z,0.68
2019-06-08T00:26:37.911Z,0.93
2019-06-08T00:29:04.722Z,1.20
2019-06-08T00:31:31.553Z,1.20
2019-06-08T00:33:58.375Z,0.90
2019-06-08T00:36:25.174Z,0.70
2019-06-08T00:38:52.606Z,0.60
2019-06-08T00:41:20.652Z,0.72
2019-06-08T00:43:48.389Z,0.70
2019-06-08T00:46:15.275Z,0.70
2019-06-08T00:48:43.206Z,0.95
2019-06-08T00:51:10.208Z,1.12
2019-06-08T00:53:37.584Z,1.00
2019-06-08T00:56:04.393Z,1.10
2019-06-08T00:58:31.187Z,0.95
2019-06-08T01:00:58.327Z,0.82
2019-06-08T01:03:25.831Z,1.00
2019-06-08T01:05:52.904Z,1.05
2019-06-08T01:08:21.711Z,0.88
2019-06-08T01:10:49.089Z,0.65
2019-06-08T01:13:16.142Z,0.82
2019-06-08T01:15:42.974Z,0.72
2019-06-08T01:18:09.799Z,0.98
2019-06-08T01:20:36.665Z,1.10
2019-06-08T01:23:03.690Z,1.12
2019-06-08T01:25:30.592Z,1.00
2019-06-08T01:27:57.308Z,1.00
2019-06-08T01:30:24.647Z,1.00
2019-06-08T01:32:51.445Z,1.00
2019-06-08T01:35:18.243Z,1.10
2019-06-08T01:37:45.452Z,0.98
2019-06-08T01:40:13.526Z,1.00
2019-06-08T01:42:40.346Z,1.07
2019-06-08T01:45:08.036Z,0.78
2019-06-08T01:47:34.851Z,0.85
2019-06-08T01:50:01.640Z,0.90
2019-06-08T01:52:28.880Z,1.05
2019-06-08T01:54:55.834Z,0.90
2019-06-08T01:57:23.129Z,0.80
2019-06-08T01:59:50.153Z,0.78
2019-06-08T02:02:16.945Z,0.95
2019-06-08T02:04:43.762Z,0.80
2019-06-08T02:07:10.618Z,0.70
2019-06-08T02:09:37.715Z,0.90
2019-06-08T02:12:04.567Z,0.65
2019-06-08T02:14:33.153Z,0.60
2019-06-08T02:17:00.078Z,0.40
2019-06-08T02:19:26.869Z,0.55
2019-06-08T02:21:53.801Z,0.85
2019-06-08T02:24:20.786Z,0.65
2019-06-08T02:26:47.569Z,1.02
2019-06-08T02:29:14.458Z,0.70
2019-06-08T02:31:42.011Z,0.57
2019-06-08T02:34:09.756Z,0.75
2019-06-08T02:36:37.849Z,0.60
2019-06-08T02:39:07.006Z,0.60
2019-06-08T02:41:35.295Z,0.70
2019-06-08T02:44:03.713Z,0.80
2019-06-08T02:46:31.006Z,0.72
2019-06-08T02:49:04.261Z,0.70
2019-06-08T02:51:28.742Z,0.90
2019-06-08T02:53:57.002Z,0.72
2019-06-08T02:56:27.017Z,0.68
2019-06-08T02:58:57.823Z,0.70
2019-06-08T03:03:55.094Z,0.88
2019-06-08T03:06:23.737Z,0.75
2019-06-08T03:08:53.925Z,0.60
2019-06-08T03:11:20.726Z,0.80
2019-06-08T03:13:49.345Z,1.00
2019-06-08T03:16:16.368Z,0.90
2019-06-08T03:18:43.151Z,0.80
2019-06-08T03:21:10.017Z,0.95
2019-06-08T03:23:38.612Z,0.85
2019-06-08T03:26:05.543Z,0.98
2019-06-08T03:28:34.936Z,0.75
2019-06-08T03:31:01.454Z,0.70
2019-06-08T03:33:28.327Z,0.70
2019-06-08T03:35:58.111Z,0.80
2019-06-08T03:38:24.103Z,1.87
2019-06-08T03:40:51.009Z,0.70
2019-06-08T03:43:18.135Z,1.17
2019-06-08T03:45:45.373Z,1.00
2019-06-08T03:48:12.546Z,1.05
2019-06-08T03:50:41.324Z,1.00
2019-06-08T03:53:08.478Z,0.62
2019-06-08T03:55:35.674Z,0.90
2019-06-08T03:58:02.466Z,0.70
2019-06-08T04:00:29.253Z,0.70
2019-06-08T04:02:56.099Z,0.78
2019-06-08T04:05:23.493Z,0.65
2019-06-08T04:07:50.557Z,0.95
2019-06-08T04:10:17.544Z,0.90
2019-06-08T04:12:46.165Z,0.80
2019-06-08T04:15:13.867Z,0.60
2019-06-08T04:17:42.193Z,1.07
2019-06-08T04:20:12.112Z,0.70
2019-06-08T04:22:44.751Z,0.97
2019-06-08T04:25:12.940Z,0.85
2019-06-08T04:27:40.382Z,0.90
2019-06-08T04:30:09.915Z,0.80
2019-06-08T04:32:38.507Z,0.90
2019-06-08T04:35:07.673Z,0.70
2019-06-08T04:37:34.470Z,0.60
2019-06-08T04:40:01.707Z,0.90
2019-06-08T04:42:28.496Z,0.85
2019-06-08T04:44:55.294Z,1.00
2019-06-08T04:47:22.212Z,0.90
2019-06-08T04:49:49.033Z,0.75
2019-06-08T04:52:15.889Z,0.82
2019-06-08T04:54:42.726Z,0.70
2019-06-08T04:57:09.547Z,0.80
2019-06-08T04:59:36.360Z,0.55
2019-06-08T05:02:03.393Z,0.75
2019-06-08T05:04:30.535Z,1.10
2019-06-08T05:06:57.331Z,0.72
2019-06-08T05:09:24.167Z,1.00
2019-06-08T05:11:51.402Z,0.80
2019-06-08T05:14:18.253Z,1.15
2019-06-08T05:16:45.369Z,0.60
2019-06-08T05:19:12.241Z,0.80
2019-06-08T05:21:39.509Z,0.78
2019-06-08T05:24:06.976Z,0.88
2019-06-08T05:26:33.779Z,0.95
2019-06-08T05:29:00.590Z,0.72
2019-06-08T05:31:27.508Z,0.88
2019-06-08T05:33:54.311Z,0.70
2019-06-08T05:36:21.150Z,0.80
2019-06-08T05:38:48.011Z,0.60
2019-06-08T05:41:14.787Z,0.80
2019-06-08T05:43:41.709Z,0.70
2019-06-08T05:46:08.706Z,0.78
2019-06-08T05:48:35.499Z,0.90
2019-06-08T05:51:04.291Z,0.70
2019-06-08T05:53:31.907Z,0.78
2019-06-08T05:55:58.726Z,0.80
2019-06-08T05:58:25.586Z,0.57
2019-06-08T06:00:52.607Z,0.78
2019-06-08T06:03:19.409Z,1.00
2019-06-08T06:05:46.533Z,0.60
2019-06-08T06:08:18.750Z,0.90
2019-06-08T06:10:42.864Z,1.05
2019-06-08T06:13:10.085Z,0.75
2019-06-08T06:15:37.380Z,0.80
2019-06-08T06:18:04.200Z,0.78
2019-06-08T06:20:31.422Z,0.72
2019-06-08T06:22:58.702Z,1.10
2019-06-08T06:25:26.013Z,1.22
2019-06-08T06:27:53.015Z,1.27
2019-06-08T06:30:20.170Z,1.25
2019-06-08T06:32:47.778Z,0.90
2019-06-08T06:35:14.984Z,0.80
2019-06-08T06:37:42.031Z,0.93
2019-06-08T06:40:10.339Z,0.70
2019-06-08T06:42:37.267Z,0.70
2019-06-08T06:45:08.556Z,0.80
2019-06-08T06:47:35.362Z,0.88
2019-06-08T06:50:07.558Z,0.50
2019-06-08T06:52:34.746Z,0.65
2019-06-08T06:55:01.712Z,0.60
2019-06-08T06:57:28.553Z,0.80
2019-06-08T06:59:55.531Z,0.65
2019-06-08T07:02:22.444Z,0.93
2019-06-08T07:04:49.990Z,0.65
2019-06-08T07:07:17.101Z,0.70
2019-06-08T07:09:44.386Z,0.60
2019-06-08T07:12:11.297Z,0.55
2019-06-08T07:14:38.187Z,0.60
2019-06-08T07:17:05.069Z,0.68
2019-06-08T07:19:32.806Z,0.93
2019-06-08T07:21:59.634Z,1.00
2019-06-08T07:24:26.661Z,0.80
2019-06-08T07:26:54.546Z,0.70
2019-06-08T07:29:21.674Z,0.78
2019-06-08T07:31:50.015Z,0.70
2019-06-08T07:34:17.397Z,0.60
2019-06-08T07:36:44.521Z,0.80
2019-06-08T07:39:11.321Z,0.65
2019-06-08T07:41:38.111Z,0.60
2019-06-08T07:44:05.429Z,0.80
2019-06-08T07:46:32.847Z,0.72
2019-06-08T07:48:59.647Z,0.60
2019-06-08T07:51:26.652Z,0.80
2019-06-08T07:53:53.630Z,0.78
2019-06-08T07:56:20.467Z,0.62
2019-06-08T07:58:49.545Z,0.60
2019-06-08T08:01:16.052Z,0.88
2019-06-08T08:03:42.989Z,0.75
2019-06-08T08:06:09.828Z,0.90
2019-06-08T08:08:36.613Z,1.30
2019-06-08T08:11:03.757Z,0.98
2019-06-08T08:13:31.916Z,1.10
2019-06-08T08:15:59.376Z,1.12
2019-06-08T08:18:27.401Z,0.80
2019-06-08T08:20:55.835Z,2.17
2019-06-08T08:23:23.234Z,1.37
2019-06-08T08:25:51.395Z,1.15
2019-06-08T08:28:18.365Z,1.05
2019-06-08T08:30:45.148Z,1.00
2019-06-08T08:33:12.338Z,0.90
2019-06-08T08:35:39.448Z,2.17
2019-06-08T08:38:07.532Z,1.20
2019-06-08T08:40:34.850Z,1.32
2019-06-08T08:43:01.774Z,1.25
2019-06-08T08:45:28.886Z,1.30
2019-06-08T08:48:10.383Z,1.37
2019-06-08T08:50:24.496Z,1.22
2019-06-08T08:52:52.276Z,1.32
2019-06-08T08:55:20.544Z,1.40
2019-06-08T08:57:48.423Z,1.20
2019-06-08T09:00:18.110Z,1.20
2019-06-08T09:02:45.218Z,1.20
2019-06-08T09:05:12.340Z,1.40
2019-06-08T09:07:39.169Z,1.02
2019-06-08T09:10:08.568Z,1.40
2019-06-08T09:12:37.700Z,0.90
2019-06-08T09:15:08.326Z,1.05
2019-06-08T09:17:34.580Z,0.90
2019-06-08T09:20:03.667Z,1.07
2019-06-08T09:22:31.249Z,1.37
2019-06-08T09:25:01.210Z,1.30
2019-06-08T09:27:28.103Z,1.50
2019-06-08T09:29:56.828Z,1.05
2019-06-08T09:32:23.741Z,1.52
2019-06-08T09:34:52.931Z,1.22
2019-06-08T09:37:19.317Z,1.00
2019-06-08T09:39:48.131Z,1.30
2019-06-08T09:42:20.955Z,1.40
2019-06-08T09:44:48.256Z,1.27
2019-06-08T09:47:17.935Z,1.25
2019-06-08T09:49:43.902Z,1.40
2019-06-08T09:52:10.791Z,1.32
2019-06-08T09:54:38.510Z,1.35
2019-06-08T09:57:06.782Z,1.20
2019-06-08T09:59:34.295Z,1.32
2019-06-08T10:02:07.492Z,1.50
2019-06-08T10:04:31.616Z,1.30
2019-06-08T10:07:00.674Z,1.82
2019-06-08T10:09:28.407Z,1.52
2019-06-08T10:11:58.611Z,1.55
2019-06-08T10:14:24.392Z,1.32
2019-06-08T10:16:51.475Z,1.32
2019-06-08T10:19:18.787Z,1.50
2019-06-08T10:21:48.046Z,1.40
2019-06-08T10:24:15.033Z,1.40
2019-06-08T10:26:41.843Z,1.80
2019-06-08T10:29:10.332Z,1.52
2019-06-08T10:31:43.007Z,1.55
2019-06-08T10:34:10.881Z,1.50
2019-06-08T10:36:35.191Z,1.70
2019-06-08T10:39:07.325Z,1.50
2019-06-08T10:41:32.299Z,2.30
2019-06-08T10:43:59.222Z,2.15
2019-06-08T10:46:26.321Z,3.90
2019-06-08T10:48:53.199Z,3.00
2019-06-08T10:51:20.085Z,2.77
2019-06-08T10:53:52.665Z,2.15
2019-06-08T10:56:15.834Z,1.92
2019-06-08T10:58:42.733Z,2.08
2019-06-08T11:01:12.175Z,1.90
2019-06-08T11:03:38.920Z,2.15
2019-06-08T11:06:07.564Z,2.37
2019-06-08T11:08:34.714Z,2.05
2019-06-08T11:11:02.909Z,2.10
2019-06-08T11:13:30.918Z,3.08
2019-06-08T11:16:00.053Z,2.40
2019-06-08T11:18:28.531Z,2.45
2019-06-08T11:20:57.988Z,2.98
2019-06-08T11:23:24.234Z,2.62
2019-06-08T11:25:51.346Z,2.65
2019-06-08T11:28:18.585Z,2.20
2019-06-08T11:30:47.958Z,2.50
2019-06-08T11:33:14.679Z,2.45
2019-06-08T11:35:41.476Z,2.50
2019-06-08T11:38:10.913Z,2.00
2019-06-08T11:40:37.886Z,2.17
2019-06-08T11:43:06.401Z,2.77
2019-06-08T11:45:33.467Z,2.20
2019-06-08T11:48:00.666Z,2.33
2019-06-08T11:50:42.170Z,2.65
2019-06-08T11:53:12.677Z,2.33
2019-06-08T11:55:38.478Z,2.40
2019-06-08T11:58:05.717Z,2.15
2019-06-08T12:01:01.227Z,2.52
2019-06-08T12:04:13.981Z,2.87
2019-06-08T12:06:42.158Z,2.50
2019-06-08T12:09:11.141Z,2.20
2019-06-08T12:11:38.378Z,2.52
2019-06-08T12:14:09.236Z,3.30
2019-06-08T12:16:34.795Z,2.60
2019-06-08T12:19:01.606Z,2.37
2019-06-08T12:21:29.253Z,2.30
2019-06-08T12:23:56.284Z,2.77
2019-06-08T12:26:23.106Z,3.10
2019-06-08T12:28:50.146Z,2.77
2019-06-08T12:31:21.941Z,2.58
2019-06-08T12:33:46.348Z,2.95
2019-06-08T12:36:16.923Z,2.75
2019-06-08T12:38:43.282Z,3.20
2019-06-08T12:41:12.275Z,3.60
2019-06-08T12:43:39.250Z,3.72
2019-06-08T12:46:10.661Z,2.98
2019-06-08T12:48:35.156Z,2.98
2019-06-08T12:51:02.005Z,2.98
2019-06-08T12:53:29.370Z,2.90
2019-06-08T12:55:57.931Z,2.72
2019-06-08T12:58:24.995Z,3.45
2019-06-08T13:00:51.798Z,2.75
2019-06-08T13:03:18.866Z,2.83
2019-06-08T13:05:45.987Z,3.10
2019-06-08T13:08:13.443Z,3.27
2019-06-08T13:10:41.917Z,3.58
2019-06-08T13:13:09.945Z,3.45
2019-06-08T13:15:38.455Z,3.05
2019-06-08T13:18:05.709Z,3.10
2019-06-08T13:20:32.711Z,3.12
2019-06-08T13:23:00.386Z,2.87
2019-06-08T13:25:37.523Z,2.72
2019-06-08T13:27:58.304Z,2.83
2019-06-08T13:30:26.352Z,2.87
2019-06-08T13:32:54.196Z,2.75
2019-06-08T13:35:22.504Z,3.47
2019-06-08T13:37:49.704Z,2.50
2019-06-08T13:40:20.101Z,3.08
2019-06-08T13:42:48.325Z,3.05
2019-06-08T13:45:16.208Z,3.62
2019-06-08T13:47:43.922Z,3.00
2019-06-08T13:50:12.948Z,3.15
2019-06-08T13:52:39.921Z,3.17
2019-06-08T13:55:08.946Z,2.50
2019-06-08T13:57:37.769Z,2.55
2019-06-08T14:00:10.326Z,2.83
2019-06-08T14:02:39.663Z,3.08
2019-06-08T14:05:08.211Z,2.42
2019-06-08T14:07:37.865Z,2.80
2019-06-08T14:10:07.466Z,3.27
2019-06-08T14:12:34.288Z,2.57
2019-06-08T14:15:01.238Z,2.80
2019-06-08T14:17:28.194Z,2.92
2019-06-08T14:19:55.126Z,3.22
2019-06-08T14:22:23.374Z,2.85
2019-06-08T14:24:50.982Z,3.55
2019-06-08T14:27:17.775Z,2.77
2019-06-08T14:29:44.595Z,3.47
2019-06-08T14:32:11.772Z,3.08
2019-06-08T14:34:38.871Z,2.85
2019-06-08T14:37:05.915Z,3.02
2019-06-08T14:39:32.731Z,3.02
2019-06-08T14:41:59.636Z,2.95
2019-06-08T14:44:31.356Z,2.67
2019-06-08T14:46:57.900Z,3.40
2019-06-08T14:49:29.645Z,3.47
2019-06-08T14:51:53.255Z,3.12
2019-06-08T14:54:24.427Z,3.00
2019-06-08T14:56:49.200Z,3.20
2019-06-08T14:59:18.334Z,3.30
2019-06-08T15:01:44.746Z,2.87
2019-06-08T15:04:13.576Z,3.10
2019-06-08T15:06:40.839Z,2.72
2019-06-08T15:09:08.665Z,3.08
2019-06-08T15:11:38.095Z,2.70
2019-06-08T15:14:05.143Z,2.83
2019-06-08T15:16:32.862Z,3.12
2019-06-08T15:19:00.405Z,2.80
2019-06-08T15:21:30.173Z,3.50
2019-06-08T15:23:57.876Z,3.65
2019-06-08T15:26:32.768Z,3.27
2019-06-08T15:28:53.956Z,3.00
2019-06-08T15:31:21.161Z,2.90
2019-06-08T15:33:48.397Z,3.20
2019-06-08T15:36:15.381Z,2.62
2019-06-08T15:38:42.414Z,3.27
2019-06-08T15:41:09.196Z,2.62
2019-06-08T15:43:37.647Z,3.27
2019-06-08T15:46:04.847Z,3.08
2019-06-08T15:48:32.826Z,3.40
2019-06-08T15:51:00.398Z,3.20
2019-06-08T15:53:29.669Z,3.02
2019-06-08T15:55:58.360Z,3.25
2019-06-08T15:58:27.466Z,2.72
2019-06-08T16:00:55.623Z,2.70
2019-06-08T16:03:23.254Z,2.92
2019-06-08T16:05:50.058Z,2.87
2019-06-08T16:08:16.879Z,2.77
2019-06-08T16:10:43.679Z,2.77
2019-06-08T16:13:10.489Z,3.20
2019-06-08T16:15:37.341Z,3.33
2019-06-08T16:18:04.125Z,2.72
2019-06-08T16:20:31.533Z,2.40
2019-06-08T16:22:58.595Z,3.10
2019-06-08T16:25:27.534Z,2.77
2019-06-08T16:27:54.720Z,2.17
2019-06-08T16:30:21.706Z,2.40
2019-06-08T16:32:48.766Z,2.40
2019-06-08T16:35:15.569Z,2.45
2019-06-08T16:37:42.744Z,2.30
2019-06-08T16:40:10.562Z,2.05
2019-06-08T16:42:38.564Z,2.55
2019-06-08T16:45:06.547Z,2.22
2019-06-08T16:47:33.431Z,2.17
2019-06-08T16:50:00.225Z,2.70
2019-06-08T16:52:28.338Z,2.17
2019-06-08T16:54:55.437Z,2.33
2019-06-08T16:57:22.252Z,2.27
2019-06-08T16:59:49.336Z,2.62
2019-06-08T17:02:17.073Z,2.15
2019-06-08T17:04:44.131Z,2.08
2019-06-08T17:07:11.396Z,2.25
2019-06-08T17:09:38.179Z,2.95
2019-06-08T17:12:04.959Z,2.25
2019-06-08T17:14:32.356Z,2.30
2019-06-08T17:16:59.152Z,2.42
2019-06-08T17:19:25.952Z,2.40
2019-06-08T17:21:52.923Z,2.15
2019-06-08T17:24:19.804Z,1.80
2019-06-08T17:26:46.649Z,2.37
2019-06-08T17:29:13.657Z,2.00
2019-06-08T17:31:41.387Z,2.10
2019-06-08T17:34:08.487Z,2.33
2019-06-08T17:36:36.485Z,2.08
2019-06-08T17:39:05.260Z,1.77
2019-06-08T17:41:32.326Z,1.87
2019-06-08T17:43:59.317Z,2.20
2019-06-08T17:46:26.267Z,2.10
2019-06-08T17:48:53.115Z,2.22
2019-06-08T17:51:19.909Z,1.90
2019-06-08T17:53:46.740Z,2.17
2019-06-08T17:56:13.537Z,2.37
2019-06-08T17:58:43.537Z,2.10
2019-06-08T18:01:10.340Z,2.80
2019-06-08T18:03:38.413Z,1.77
2019-06-08T18:06:07.300Z,2.12
2019-06-08T18:08:36.753Z,2.30
2019-06-08T18:11:03.222Z,1.90
2019-06-08T18:13:30.307Z,2.08
2019-06-08T18:15:57.679Z,2.20
2019-06-08T18:18:28.124Z,2.00
2019-06-08T18:20:54.663Z,1.90
2019-06-08T18:23:21.544Z,1.82
2019-06-08T18:25:49.268Z,2.30
2019-06-08T18:28:17.212Z,1.98
2019-06-08T18:30:45.103Z,1.92
2019-06-08T18:33:13.253Z,1.65
2019-06-08T18:35:41.871Z,1.75
2019-06-08T18:38:08.767Z,2.15
2019-06-08T18:40:37.934Z,1.90
2019-06-08T18:43:04.560Z,3.22
2019-06-08T18:45:31.417Z,1.87
2019-06-08T18:47:58.302Z,1.95
2019-06-08T18:50:25.228Z,1.98
2019-06-08T18:52:52.409Z,1.70
2019-06-08T18:55:19.476Z,1.80
2019-06-08T18:57:48.397Z,1.40
2019-06-08T19:00:16.285Z,1.75
2019-06-08T19:02:46.244Z,2.10
2019-06-08T19:05:12.860Z,1.70
2019-06-08T19:07:41.266Z,2.30
2019-06-08T19:10:08.769Z,1.90
2019-06-08T19:12:38.362Z,1.80
2019-06-08T19:15:08.224Z,2.30
2019-06-08T19:17:34.097Z,2.33
2019-06-08T19:20:01.006Z,1.98
2019-06-08T19:22:30.332Z,2.10
2019-06-08T19:24:56.811Z,2.10
2019-06-08T19:27:23.651Z,1.82
2019-06-08T19:29:51.749Z,1.98
2019-06-08T19:32:18.765Z,2.27
2019-06-08T19:34:53.155Z,2.08
2019-06-08T19:37:14.319Z,2.65
2019-06-08T19:39:44.145Z,2.02
2019-06-08T19:42:10.156Z,2.10
2019-06-08T19:44:38.582Z,1.87
2019-06-08T19:47:07.989Z,1.92
2019-06-08T19:49:34.573Z,2.05
2019-06-08T19:52:01.586Z,1.85
2019-06-08T19:54:28.487Z,2.83
2019-06-08T19:56:57.434Z,2.75
2019-06-08T19:59:24.254Z,2.75
2019-06-08T20:01:54.979Z,3.55
2019-06-08T20:04:19.849Z,2.33
2019-06-08T20:06:48.015Z,3.85
2019-06-08T20:09:17.280Z,2.85
2019-06-08T20:11:47.311Z,2.72
2019-06-08T20:14:12.842Z,2.35
2019-06-08T20:16:40.518Z,2.58
2019-06-08T20:19:08.070Z,2.70
2019-06-08T20:21:35.036Z,2.08
2019-06-08T20:24:03.434Z,2.30
2019-06-08T20:26:31.937Z,1.40
2019-06-08T20:29:12.165Z,1.60
2019-06-08T20:31:27.826Z,1.60
2019-06-08T20:33:57.478Z,1.87
2019-06-08T20:36:24.157Z,1.55
2019-06-08T20:38:50.996Z,1.72
2019-06-08T20:41:18.396Z,1.62
2019-06-08T20:43:49.900Z,1.45
2019-06-08T20:46:17.144Z,1.55
2019-06-08T20:48:44.222Z,2.08
2019-06-08T20:51:11.292Z,2.25
2019-06-08T20:53:38.791Z,2.50
2019-06-08T20:56:07.966Z,2.40
2019-06-08T20:58:37.020Z,1.60
2019-06-08T21:01:03.461Z,1.77
2019-06-08T21:03:30.310Z,2.20
2019-06-08T21:05:58.256Z,1.82
2019-06-08T21:08:25.320Z,1.90
2019-06-08T21:10:54.112Z,2.40
2019-06-08T21:13:21.480Z,2.20
2019-06-08T21:15:52.608Z,2.27
2019-06-08T21:18:19.131Z,2.08
2019-06-08T21:20:47.168Z,1.85
2019-06-08T21:23:14.432Z,2.30
2019-06-08T21:25:41.278Z,1.80
2019-06-08T21:28:08.734Z,1.98
2019-06-08T21:30:37.573Z,1.80
2019-06-08T21:33:04.473Z,1.95
2019-06-08T21:35:31.261Z,1.85
2019-06-08T21:38:00.818Z,1.50
2019-06-08T21:40:28.162Z,1.85
2019-06-08T21:42:59.961Z,1.60
2019-06-08T21:45:24.016Z,1.70
2019-06-08T21:47:51.748Z,1.32
2019-06-08T21:50:19.751Z,1.50
2019-06-08T21:52:48.662Z,1.50
2019-06-08T21:55:17.646Z,2.20
2019-06-08T21:57:44.006Z,2.33
2019-06-08T22:00:29.399Z,2.42
2019-06-08T22:02:40.479Z,2.25
2019-06-08T22:05:08.238Z,2.85
2019-06-08T22:07:37.544Z,2.42
2019-06-08T22:10:07.892Z,2.62
2019-06-08T22:15:07.545Z,2.60
2019-06-08T22:17:35.191Z,2.08
2019-06-08T22:20:07.777Z,2.83
2019-06-08T22:22:33.893Z,2.62
2019-06-08T22:25:01.175Z,2.67
2019-06-08T22:27:28.207Z,2.60
2019-06-08T22:29:58.184Z,3.08
2019-06-08T22:32:24.357Z,2.65
2019-06-08T22:34:52.784Z,3.55
2019-06-08T22:37:20.206Z,3.17
2019-06-08T22:39:47.915Z,3.50
2019-06-08T22:42:17.606Z,3.27
2019-06-08T22:44:43.679Z,3.35
2019-06-08T22:47:10.910Z,4.20
2019-06-08T22:49:38.461Z,3.05
2019-06-08T22:52:07.968Z,3.08
2019-06-08T22:54:34.307Z,3.30
2019-06-08T22:57:04.641Z,3.00
2019-06-08T22:59:31.605Z,2.92
2019-06-08T23:02:01.011Z,3.35
2019-06-08T23:04:27.707Z,4.10
2019-06-08T23:06:59.181Z,4.05
2019-06-08T23:09:23.805Z,3.92
2019-06-08T23:11:51.095Z,3.55
2019-06-08T23:14:18.047Z,3.72
2019-06-08T23:16:47.221Z,3.33
2019-06-08T23:19:14.139Z,4.15
2019-06-08T23:21:40.928Z,3.10
2019-06-08T23:24:08.506Z,4.15
2019-06-08T23:26:37.233Z,4.05
2019-06-08T23:29:04.455Z,3.77
2019-06-08T23:31:31.710Z,3.52
2019-06-08T23:34:00.348Z,3.35
2019-06-08T23:36:46.963Z,3.55
2019-06-08T23:38:57.006Z,3.58
2019-06-08T23:41:23.933Z,3.00
2019-06-08T23:43:50.757Z,3.58
2019-06-08T23:46:18.232Z,3.00
2019-06-08T23:48:48.150Z,4.17
2019-06-08T23:51:14.254Z,3.42
2019-06-08T23:53:41.152Z,3.50
2019-06-08T23:56:11.354Z,3.55
2019-06-08T23:58:37.196Z,3.70
